sensor_id;sensor_type;location;lat;lon;timestamp;P1;durP1;ratioP1;P2;durP2;ratioP2
12798;SDS011;19250;42.646;26.980;2022-12-11T00:00:13;22.25;;;8.85;;
12798;SDS011;19250;42.646;26.980;2022-12-11T00:02:41;26.80;;;11.13;;
12798;SDS011;19250;42.646;26.980;2022-12-11T00:05:08;24.95;;;10.32;;
12798;SDS011;19250;42.646;26.980;2022-12-11T00:07:36;41.40;;;9.93;;
12798;SDS011;19250;42.646;26.980;2022-12-11T00:10:04;26.20;;;10.30;;
12798;SDS011;19250;42.646;26.980;2022-12-11T00:12:33;23.15;;;9.30;;
12798;SDS011;19250;42.646;26.980;2022-12-11T00:15:00;24.63;;;8.60;;
12798;SDS011;19250;42.646;26.980;2022-12-11T00:17:28;19.15;;;10.32;;
12798;SDS011;19250;42.646;26.980;2022-12-11T00:19:55;23.33;;;9.30;;
12798;SDS011;19250;42.646;26.980;2022-12-11T00:22:22;22.17;;;10.93;;
12798;SDS011;19250;42.646;26.980;2022-12-11T00:24:51;20.70;;;8.38;;
12798;SDS011;19250;42.646;26.980;2022-12-11T00:27:19;21.40;;;10.10;;
12798;SDS011;19250;42.646;26.980;2022-12-11T00:29:46;26.55;;;10.68;;
12798;SDS011;19250;42.646;26.980;2022-12-11T00:32:13;22.97;;;10.60;;
12798;SDS011;19250;42.646;26.980;2022-12-11T00:34:40;24.75;;;10.27;;
12798;SDS011;19250;42.646;26.980;2022-12-11T00:37:08;20.80;;;9.48;;
12798;SDS011;19250;42.646;26.980;2022-12-11T00:39:35;27.40;;;10.45;;
12798;SDS011;19250;42.646;26.980;2022-12-11T00:42:05;26.55;;;10.57;;
12798;SDS011;19250;42.646;26.980;2022-12-11T00:44:33;18.33;;;9.17;;
12798;SDS011;19250;42.646;26.980;2022-12-11T00:47:01;29.70;;;11.10;;
12798;SDS011;19250;42.646;26.980;2022-12-11T00:49:28;27.27;;;10.77;;
12798;SDS011;19250;42.646;26.980;2022-12-11T00:51:55;19.25;;;9.85;;
12798;SDS011;19250;42.646;26.980;2022-12-11T00:54:23;26.63;;;11.70;;
12798;SDS011;19250;42.646;26.980;2022-12-11T00:56:50;20.50;;;10.82;;
12798;SDS011;19250;42.646;26.980;2022-12-11T00:59:18;22.95;;;10.82;;
12798;SDS011;19250;42.646;26.980;2022-12-11T01:01:46;26.83;;;12.20;;
12798;SDS011;19250;42.646;26.980;2022-12-11T01:04:13;29.48;;;10.95;;
12798;SDS011;19250;42.646;26.980;2022-12-11T01:06:40;28.90;;;11.15;;
12798;SDS011;19250;42.646;26.980;2022-12-11T01:09:07;25.17;;;11.20;;
12798;SDS011;19250;42.646;26.980;2022-12-11T01:11:52;26.90;;;11.00;;
12798;SDS011;19250;42.646;26.980;2022-12-11T01:14:21;24.63;;;10.63;;
12798;SDS011;19250;42.646;26.980;2022-12-11T01:16:48;24.52;;;10.55;;
12798;SDS011;19250;42.646;26.980;2022-12-11T01:19:15;24.23;;;11.43;;
12798;SDS011;19250;42.646;26.980;2022-12-11T01:21:42;31.33;;;11.80;;
12798;SDS011;19250;42.646;26.980;2022-12-11T01:24:10;25.02;;;11.13;;
12798;SDS011;19250;42.646;26.980;2022-12-11T01:26:37;30.63;;;12.55;;
12798;SDS011;19250;42.646;26.980;2022-12-11T01:29:04;27.90;;;11.82;;
12798;SDS011;19250;42.646;26.980;2022-12-11T01:31:33;26.87;;;11.60;;
12798;SDS011;19250;42.646;26.980;2022-12-11T01:34:00;30.75;;;10.82;;
12798;SDS011;19250;42.646;26.980;2022-12-11T01:36:27;27.40;;;11.37;;
12798;SDS011;19250;42.646;26.980;2022-12-11T01:38:55;27.40;;;11.13;;
12798;SDS011;19250;42.646;26.980;2022-12-11T01:41:22;23.77;;;10.13;;
12798;SDS011;19250;42.646;26.980;2022-12-11T01:44:00;30.67;;;13.95;;
12798;SDS011;19250;42.646;26.980;2022-12-11T01:46:30;33.03;;;12.97;;
12798;SDS011;19250;42.646;26.980;2022-12-11T01:49:00;27.60;;;10.95;;
12798;SDS011;19250;42.646;26.980;2022-12-11T01:51:30;30.23;;;11.52;;
12798;SDS011;19250;42.646;26.980;2022-12-11T01:54:00;30.20;;;11.52;;
12798;SDS011;19250;42.646;26.980;2022-12-11T01:56:30;29.17;;;11.95;;
12798;SDS011;19250;42.646;26.980;2022-12-11T01:59:01;28.08;;;10.10;;
12798;SDS011;19250;42.646;26.980;2022-12-11T02:01:32;25.73;;;11.57;;
12798;SDS011;19250;42.646;26.980;2022-12-11T02:04:04;27.53;;;11.63;;
12798;SDS011;19250;42.646;26.980;2022-12-11T02:06:34;27.60;;;11.88;;
12798;SDS011;19250;42.646;26.980;2022-12-11T02:09:03;29.45;;;11.95;;
12798;SDS011;19250;42.646;26.980;2022-12-11T02:11:43;31.20;;;11.95;;
12798;SDS011;19250;42.646;26.980;2022-12-11T02:14:19;27.97;;;11.90;;
12798;SDS011;19250;42.646;26.980;2022-12-11T02:16:54;30.63;;;12.85;;
12798;SDS011;19250;42.646;26.980;2022-12-11T02:19:33;28.48;;;12.23;;
12798;SDS011;19250;42.646;26.980;2022-12-11T02:22:12;28.48;;;12.70;;
12798;SDS011;19250;42.646;26.980;2022-12-11T02:25:02;29.88;;;13.35;;
12798;SDS011;19250;42.646;26.980;2022-12-11T02:27:38;25.20;;;11.27;;
12798;SDS011;19250;42.646;26.980;2022-12-11T02:30:11;33.50;;;13.20;;
12798;SDS011;19250;42.646;26.980;2022-12-11T02:32:42;27.52;;;13.65;;
12798;SDS011;19250;42.646;26.980;2022-12-11T02:35:14;31.88;;;13.88;;
12798;SDS011;19250;42.646;26.980;2022-12-11T02:37:45;32.88;;;14.20;;
12798;SDS011;19250;42.646;26.980;2022-12-11T02:40:18;32.47;;;15.20;;
12798;SDS011;19250;42.646;26.980;2022-12-11T02:42:48;30.85;;;14.18;;
12798;SDS011;19250;42.646;26.980;2022-12-11T02:45:19;29.95;;;13.82;;
12798;SDS011;19250;42.646;26.980;2022-12-11T02:47:48;30.55;;;15.23;;
12798;SDS011;19250;42.646;26.980;2022-12-11T02:50:17;30.07;;;14.83;;
12798;SDS011;19250;42.646;26.980;2022-12-11T02:52:48;26.60;;;12.13;;
12798;SDS011;19250;42.646;26.980;2022-12-11T02:55:20;29.38;;;15.25;;
12798;SDS011;19250;42.646;26.980;2022-12-11T02:57:50;33.97;;;15.07;;
12798;SDS011;19250;42.646;26.980;2022-12-11T03:00:22;28.67;;;14.93;;
12798;SDS011;19250;42.646;26.980;2022-12-11T03:02:50;29.90;;;15.73;;
12798;SDS011;19250;42.646;26.980;2022-12-11T03:05:17;37.55;;;16.50;;
12798;SDS011;19250;42.646;26.980;2022-12-11T03:07:44;30.90;;;15.40;;
12798;SDS011;19250;42.646;26.980;2022-12-11T03:10:13;31.25;;;17.38;;
12798;SDS011;19250;42.646;26.980;2022-12-11T03:12:44;29.38;;;15.63;;
12798;SDS011;19250;42.646;26.980;2022-12-11T03:15:14;30.65;;;15.73;;
12798;SDS011;19250;42.646;26.980;2022-12-11T03:17:48;33.80;;;16.00;;
12798;SDS011;19250;42.646;26.980;2022-12-11T03:20:25;28.77;;;15.15;;
12798;SDS011;19250;42.646;26.980;2022-12-11T03:23:02;33.45;;;15.73;;
12798;SDS011;19250;42.646;26.980;2022-12-11T03:25:36;33.47;;;14.82;;
12798;SDS011;19250;42.646;26.980;2022-12-11T03:28:10;27.55;;;16.23;;
12798;SDS011;19250;42.646;26.980;2022-12-11T03:30:41;27.10;;;14.77;;
12798;SDS011;19250;42.646;26.980;2022-12-11T03:33:12;28.90;;;14.23;;
12798;SDS011;19250;42.646;26.980;2022-12-11T03:35:47;26.92;;;13.77;;
12798;SDS011;19250;42.646;26.980;2022-12-11T03:38:19;26.48;;;14.90;;
12798;SDS011;19250;42.646;26.980;2022-12-11T03:40:50;29.10;;;15.45;;
12798;SDS011;19250;42.646;26.980;2022-12-11T03:43:20;29.38;;;14.75;;
12798;SDS011;19250;42.646;26.980;2022-12-11T03:45:49;26.10;;;12.90;;
12798;SDS011;19250;42.646;26.980;2022-12-11T03:48:20;23.47;;;13.50;;
12798;SDS011;19250;42.646;26.980;2022-12-11T03:50:52;21.60;;;12.20;;
12798;SDS011;19250;42.646;26.980;2022-12-11T03:53:20;25.02;;;14.38;;
12798;SDS011;19250;42.646;26.980;2022-12-11T03:55:48;27.27;;;14.80;;
12798;SDS011;19250;42.646;26.980;2022-12-11T03:58:17;23.20;;;12.98;;
12798;SDS011;19250;42.646;26.980;2022-12-11T04:00:44;28.38;;;14.30;;
12798;SDS011;19250;42.646;26.980;2022-12-11T04:03:11;22.52;;;13.98;;
12798;SDS011;19250;42.646;26.980;2022-12-11T04:05:40;23.23;;;13.93;;
12798;SDS011;19250;42.646;26.980;2022-12-11T04:08:09;26.92;;;17.95;;
12798;SDS011;19250;42.646;26.980;2022-12-11T04:10:36;30.30;;;17.65;;
12798;SDS011;19250;42.646;26.980;2022-12-11T04:13:04;24.25;;;13.93;;
12798;SDS011;19250;42.646;26.980;2022-12-11T04:15:31;27.00;;;15.02;;
12798;SDS011;19250;42.646;26.980;2022-12-11T04:17:57;28.13;;;14.60;;
12798;SDS011;19250;42.646;26.980;2022-12-11T04:20:43;26.55;;;15.52;;
12798;SDS011;19250;42.646;26.980;2022-12-11T04:23:28;27.02;;;15.13;;
12798;SDS011;19250;42.646;26.980;2022-12-11T04:26:13;30.95;;;17.02;;
12798;SDS011;19250;42.646;26.980;2022-12-11T04:28:42;28.58;;;15.30;;
12798;SDS011;19250;42.646;26.980;2022-12-11T04:31:11;25.38;;;14.70;;
12798;SDS011;19250;42.646;26.980;2022-12-11T04:33:39;33.33;;;17.65;;
12798;SDS011;19250;42.646;26.980;2022-12-11T04:36:09;28.02;;;16.85;;
12798;SDS011;19250;42.646;26.980;2022-12-11T04:38:37;23.35;;;14.05;;
12798;SDS011;19250;42.646;26.980;2022-12-11T04:41:05;27.35;;;13.18;;
12798;SDS011;19250;42.646;26.980;2022-12-11T04:43:34;24.55;;;14.20;;
12798;SDS011;19250;42.646;26.980;2022-12-11T04:46:02;26.17;;;13.75;;
12798;SDS011;19250;42.646;26.980;2022-12-11T04:48:31;27.00;;;14.80;;
12798;SDS011;19250;42.646;26.980;2022-12-11T04:50:58;30.80;;;16.85;;
12798;SDS011;19250;42.646;26.980;2022-12-11T04:53:27;26.55;;;15.18;;
12798;SDS011;19250;42.646;26.980;2022-12-11T04:55:54;30.67;;;15.60;;
12798;SDS011;19250;42.646;26.980;2022-12-11T04:58:22;30.60;;;15.07;;
12798;SDS011;19250;42.646;26.980;2022-12-11T05:00:50;29.42;;;15.00;;
12798;SDS011;19250;42.646;26.980;2022-12-11T05:03:18;23.73;;;12.82;;
12798;SDS011;19250;42.646;26.980;2022-12-11T05:05:49;27.83;;;13.30;;
12798;SDS011;19250;42.646;26.980;2022-12-11T05:08:17;31.45;;;14.40;;
12798;SDS011;19250;42.646;26.980;2022-12-11T05:10:53;24.73;;;12.93;;
12798;SDS011;19250;42.646;26.980;2022-12-11T05:13:21;25.47;;;12.97;;
12798;SDS011;19250;42.646;26.980;2022-12-11T05:15:48;23.58;;;13.65;;
12798;SDS011;19250;42.646;26.980;2022-12-11T05:18:16;31.05;;;13.13;;
12798;SDS011;19250;42.646;26.980;2022-12-11T05:20:43;28.57;;;12.90;;
12798;SDS011;19250;42.646;26.980;2022-12-11T05:23:10;26.85;;;12.65;;
12798;SDS011;19250;42.646;26.980;2022-12-11T05:25:38;23.38;;;11.43;;
12798;SDS011;19250;42.646;26.980;2022-12-11T05:28:06;23.83;;;10.82;;
12798;SDS011;19250;42.646;26.980;2022-12-11T05:30:34;27.30;;;12.68;;
12798;SDS011;19250;42.646;26.980;2022-12-11T05:33:01;26.50;;;12.70;;
12798;SDS011;19250;42.646;26.980;2022-12-11T05:35:28;27.42;;;12.75;;
12798;SDS011;19250;42.646;26.980;2022-12-11T05:37:55;32.30;;;13.43;;
12798;SDS011;19250;42.646;26.980;2022-12-11T05:40:24;24.80;;;12.23;;
12798;SDS011;19250;42.646;26.980;2022-12-11T05:42:51;25.35;;;12.10;;
12798;SDS011;19250;42.646;26.980;2022-12-11T05:45:20;25.25;;;12.07;;
12798;SDS011;19250;42.646;26.980;2022-12-11T05:47:47;24.40;;;11.05;;
12798;SDS011;19250;42.646;26.980;2022-12-11T05:50:15;27.73;;;12.33;;
12798;SDS011;19250;42.646;26.980;2022-12-11T05:52:42;20.10;;;10.70;;
12798;SDS011;19250;42.646;26.980;2022-12-11T05:55:09;27.75;;;12.70;;
12798;SDS011;19250;42.646;26.980;2022-12-11T05:57:36;22.83;;;10.87;;
12798;SDS011;19250;42.646;26.980;2022-12-11T06:00:04;24.38;;;10.95;;
12798;SDS011;19250;42.646;26.980;2022-12-11T06:02:35;21.23;;;10.05;;
12798;SDS011;19250;42.646;26.980;2022-12-11T06:05:02;21.50;;;10.43;;
12798;SDS011;19250;42.646;26.980;2022-12-11T06:07:29;20.50;;;9.57;;
12798;SDS011;19250;42.646;26.980;2022-12-11T06:09:57;21.73;;;10.02;;
12798;SDS011;19250;42.646;26.980;2022-12-11T06:12:24;19.73;;;9.60;;
12798;SDS011;19250;42.646;26.980;2022-12-11T06:14:52;22.67;;;9.10;;
12798;SDS011;19250;42.646;26.980;2022-12-11T06:17:19;19.55;;;9.02;;
12798;SDS011;19250;42.646;26.980;2022-12-11T06:19:48;20.95;;;8.57;;
12798;SDS011;19250;42.646;26.980;2022-12-11T06:22:15;18.13;;;8.73;;
12798;SDS011;19250;42.646;26.980;2022-12-11T06:24:43;19.27;;;10.05;;
12798;SDS011;19250;42.646;26.980;2022-12-11T06:27:10;22.27;;;8.85;;
12798;SDS011;19250;42.646;26.980;2022-12-11T06:29:37;21.85;;;10.02;;
12798;SDS011;19250;42.646;26.980;2022-12-11T06:32:05;21.60;;;9.40;;
12798;SDS011;19250;42.646;26.980;2022-12-11T06:34:32;17.08;;;8.57;;
12798;SDS011;19250;42.646;26.980;2022-12-11T06:37:01;21.77;;;9.20;;
12798;SDS011;19250;42.646;26.980;2022-12-11T06:39:28;25.20;;;9.13;;
12798;SDS011;19250;42.646;26.980;2022-12-11T06:41:55;21.65;;;8.32;;
12798;SDS011;19250;42.646;26.980;2022-12-11T06:44:23;21.88;;;7.80;;
12798;SDS011;19250;42.646;26.980;2022-12-11T06:46:50;22.30;;;8.05;;
12798;SDS011;19250;42.646;26.980;2022-12-11T06:49:17;18.00;;;6.60;;
12798;SDS011;19250;42.646;26.980;2022-12-11T06:51:44;19.17;;;7.82;;
12798;SDS011;19250;42.646;26.980;2022-12-11T06:54:13;19.85;;;7.20;;
12798;SDS011;19250;42.646;26.980;2022-12-11T06:56:40;13.60;;;6.28;;
12798;SDS011;19250;42.646;26.980;2022-12-11T06:59:09;17.65;;;6.22;;
12798;SDS011;19250;42.646;26.980;2022-12-11T07:01:37;15.18;;;5.85;;
12798;SDS011;19250;42.646;26.980;2022-12-11T07:04:05;11.33;;;4.83;;
12798;SDS011;19250;42.646;26.980;2022-12-11T07:06:32;15.90;;;6.78;;
12798;SDS011;19250;42.646;26.980;2022-12-11T07:09:01;16.05;;;6.25;;
12798;SDS011;19250;42.646;26.980;2022-12-11T07:11:31;15.10;;;6.37;;
12798;SDS011;19250;42.646;26.980;2022-12-11T07:13:58;17.23;;;5.55;;
12798;SDS011;19250;42.646;26.980;2022-12-11T07:16:26;17.23;;;5.93;;
12798;SDS011;19250;42.646;26.980;2022-12-11T07:18:53;17.60;;;6.20;;
12798;SDS011;19250;42.646;26.980;2022-12-11T07:21:20;20.48;;;6.75;;
12798;SDS011;19250;42.646;26.980;2022-12-11T07:23:48;17.55;;;6.70;;
12798;SDS011;19250;42.646;26.980;2022-12-11T07:26:17;16.38;;;5.43;;
12798;SDS011;19250;42.646;26.980;2022-12-11T07:28:48;16.02;;;5.75;;
12798;SDS011;19250;42.646;26.980;2022-12-11T07:31:16;17.73;;;6.20;;
12798;SDS011;19250;42.646;26.980;2022-12-11T07:33:45;14.93;;;5.55;;
12798;SDS011;19250;42.646;26.980;2022-12-11T07:36:13;13.20;;;5.85;;
12798;SDS011;19250;42.646;26.980;2022-12-11T07:38:41;12.70;;;5.32;;
12798;SDS011;19250;42.646;26.980;2022-12-11T07:41:11;13.73;;;5.25;;
12798;SDS011;19250;42.646;26.980;2022-12-11T07:43:39;13.15;;;4.97;;
12798;SDS011;19250;42.646;26.980;2022-12-11T07:46:10;17.10;;;5.90;;
12798;SDS011;19250;42.646;26.980;2022-12-11T07:48:38;20.27;;;5.97;;
12798;SDS011;19250;42.646;26.980;2022-12-11T07:51:08;13.00;;;4.13;;
12798;SDS011;19250;42.646;26.980;2022-12-11T07:53:36;15.02;;;4.93;;
12798;SDS011;19250;42.646;26.980;2022-12-11T07:56:04;13.32;;;5.25;;
12798;SDS011;19250;42.646;26.980;2022-12-11T07:58:32;17.45;;;4.53;;
12798;SDS011;19250;42.646;26.980;2022-12-11T08:01:00;18.42;;;5.38;;
12798;SDS011;19250;42.646;26.980;2022-12-11T08:03:29;15.38;;;5.40;;
12798;SDS011;19250;42.646;26.980;2022-12-11T08:05:56;15.52;;;5.10;;
12798;SDS011;19250;42.646;26.980;2022-12-11T08:08:23;16.00;;;5.40;;
12798;SDS011;19250;42.646;26.980;2022-12-11T08:10:50;13.20;;;4.68;;
12798;SDS011;19250;42.646;26.980;2022-12-11T08:13:17;14.53;;;4.90;;
12798;SDS011;19250;42.646;26.980;2022-12-11T08:15:45;11.68;;;4.97;;
12798;SDS011;19250;42.646;26.980;2022-12-11T08:18:13;15.82;;;5.03;;
12798;SDS011;19250;42.646;26.980;2022-12-11T08:20:41;14.95;;;5.28;;
12798;SDS011;19250;42.646;26.980;2022-12-11T08:23:09;15.57;;;6.05;;
12798;SDS011;19250;42.646;26.980;2022-12-11T08:25:36;19.90;;;9.63;;
12798;SDS011;19250;42.646;26.980;2022-12-11T08:28:03;13.70;;;5.32;;
12798;SDS011;19250;42.646;26.980;2022-12-11T08:30:31;9.68;;;3.40;;
12798;SDS011;19250;42.646;26.980;2022-12-11T08:32:58;9.10;;;3.17;;
12798;SDS011;19250;42.646;26.980;2022-12-11T08:35:25;13.67;;;5.67;;
12798;SDS011;19250;42.646;26.980;2022-12-11T08:37:54;13.10;;;4.57;;
12798;SDS011;19250;42.646;26.980;2022-12-11T08:40:21;13.77;;;4.23;;
12798;SDS011;19250;42.646;26.980;2022-12-11T08:42:49;17.58;;;4.88;;
12798;SDS011;19250;42.646;26.980;2022-12-11T08:45:16;10.32;;;3.08;;
12798;SDS011;19250;42.646;26.980;2022-12-11T08:47:44;10.07;;;3.30;;
12798;SDS011;19250;42.646;26.980;2022-12-11T08:50:11;12.73;;;4.20;;
12798;SDS011;19250;42.646;26.980;2022-12-11T08:52:38;10.73;;;3.70;;
12798;SDS011;19250;42.646;26.980;2022-12-11T08:55:08;12.85;;;3.80;;
12798;SDS011;19250;42.646;26.980;2022-12-11T08:57:35;10.50;;;3.88;;
12798;SDS011;19250;42.646;26.980;2022-12-11T09:00:04;11.57;;;3.63;;
12798;SDS011;19250;42.646;26.980;2022-12-11T09:02:33;9.07;;;4.00;;
12798;SDS011;19250;42.646;26.980;2022-12-11T09:05:00;8.45;;;3.38;;
12798;SDS011;19250;42.646;26.980;2022-12-11T09:07:31;13.53;;;4.10;;
12798;SDS011;19250;42.646;26.980;2022-12-11T09:09:59;14.57;;;4.35;;
12798;SDS011;19250;42.646;26.980;2022-12-11T09:12:28;13.07;;;4.18;;
12798;SDS011;19250;42.646;26.980;2022-12-11T09:14:55;14.18;;;5.00;;
12798;SDS011;19250;42.646;26.980;2022-12-11T09:17:22;11.15;;;3.47;;
12798;SDS011;19250;42.646;26.980;2022-12-11T09:19:49;12.67;;;3.70;;
12798;SDS011;19250;42.646;26.980;2022-12-11T09:22:17;12.27;;;3.85;;
12798;SDS011;19250;42.646;26.980;2022-12-11T09:24:44;14.02;;;4.47;;
12798;SDS011;19250;42.646;26.980;2022-12-11T09:27:11;9.80;;;3.00;;
12798;SDS011;19250;42.646;26.980;2022-12-11T09:29:40;12.88;;;3.55;;
12798;SDS011;19250;42.646;26.980;2022-12-11T09:32:07;13.10;;;5.23;;
12798;SDS011;19250;42.646;26.980;2022-12-11T09:34:35;11.75;;;3.17;;
12798;SDS011;19250;42.646;26.980;2022-12-11T09:37:02;9.05;;;3.33;;
12798;SDS011;19250;42.646;26.980;2022-12-11T09:39:29;11.27;;;3.35;;
12798;SDS011;19250;42.646;26.980;2022-12-11T09:41:58;16.10;;;5.00;;
12798;SDS011;19250;42.646;26.980;2022-12-11T09:44:36;11.67;;;3.27;;
12798;SDS011;19250;42.646;26.980;2022-12-11T09:47:15;14.48;;;6.20;;
12798;SDS011;19250;42.646;26.980;2022-12-11T09:49:46;14.70;;;5.05;;
12798;SDS011;19250;42.646;26.980;2022-12-11T09:52:19;19.15;;;8.43;;
12798;SDS011;19250;42.646;26.980;2022-12-11T09:54:50;14.90;;;5.03;;
12798;SDS011;19250;42.646;26.980;2022-12-11T09:57:26;12.73;;;3.75;;
12798;SDS011;19250;42.646;26.980;2022-12-11T10:00:05;13.43;;;5.80;;
12798;SDS011;19250;42.646;26.980;2022-12-11T10:05:54;13.45;;;4.85;;
12798;SDS011;19250;42.646;26.980;2022-12-11T10:08:29;12.95;;;5.65;;
12798;SDS011;19250;42.646;26.980;2022-12-11T10:11:02;12.70;;;5.50;;
12798;SDS011;19250;42.646;26.980;2022-12-11T10:13:43;13.30;;;5.00;;
12798;SDS011;19250;42.646;26.980;2022-12-11T10:16:23;14.18;;;5.03;;
12798;SDS011;19250;42.646;26.980;2022-12-11T10:19:02;13.82;;;4.28;;
12798;SDS011;19250;42.646;26.980;2022-12-11T10:21:35;12.83;;;4.80;;
12798;SDS011;19250;42.646;26.980;2022-12-11T10:24:09;14.13;;;4.78;;
12798;SDS011;19250;42.646;26.980;2022-12-11T10:26:42;13.20;;;5.53;;
12798;SDS011;19250;42.646;26.980;2022-12-11T10:29:13;19.73;;;7.00;;
12798;SDS011;19250;42.646;26.980;2022-12-11T10:31:43;19.17;;;7.55;;
12798;SDS011;19250;42.646;26.980;2022-12-11T10:34:19;17.80;;;6.53;;
12798;SDS011;19250;42.646;26.980;2022-12-11T10:36:58;15.15;;;5.65;;
12798;SDS011;19250;42.646;26.980;2022-12-11T10:39:25;15.97;;;6.23;;
12798;SDS011;19250;42.646;26.980;2022-12-11T10:41:54;20.00;;;6.70;;
12798;SDS011;19250;42.646;26.980;2022-12-11T10:44:22;17.25;;;6.05;;
12798;SDS011;19250;42.646;26.980;2022-12-11T10:47:00;14.32;;;4.90;;
12798;SDS011;19250;42.646;26.980;2022-12-11T10:49:32;19.50;;;6.63;;
12798;SDS011;19250;42.646;26.980;2022-12-11T10:52:00;16.52;;;7.05;;
12798;SDS011;19250;42.646;26.980;2022-12-11T10:54:36;21.30;;;7.63;;
12798;SDS011;19250;42.646;26.980;2022-12-11T10:57:06;19.67;;;6.97;;
12798;SDS011;19250;42.646;26.980;2022-12-11T10:59:36;19.67;;;6.03;;
12798;SDS011;19250;42.646;26.980;2022-12-11T11:02:06;20.13;;;7.07;;
12798;SDS011;19250;42.646;26.980;2022-12-11T11:04:48;22.63;;;9.45;;
12798;SDS011;19250;42.646;26.980;2022-12-11T11:07:18;19.17;;;6.70;;
12798;SDS011;19250;42.646;26.980;2022-12-11T11:09:46;22.55;;;7.30;;
12798;SDS011;19250;42.646;26.980;2022-12-11T11:12:17;20.35;;;6.30;;
12798;SDS011;19250;42.646;26.980;2022-12-11T11:14:45;15.65;;;6.03;;
12798;SDS011;19250;42.646;26.980;2022-12-11T11:17:13;22.17;;;8.77;;
12798;SDS011;19250;42.646;26.980;2022-12-11T11:19:44;15.70;;;6.78;;
12798;SDS011;19250;42.646;26.980;2022-12-11T11:22:15;19.67;;;6.15;;
12798;SDS011;19250;42.646;26.980;2022-12-11T11:24:45;21.17;;;8.63;;
12798;SDS011;19250;42.646;26.980;2022-12-11T11:27:21;13.43;;;4.78;;
12798;SDS011;19250;42.646;26.980;2022-12-11T11:29:55;21.35;;;6.72;;
12798;SDS011;19250;42.646;26.980;2022-12-11T11:32:27;19.70;;;6.75;;
12798;SDS011;19250;42.646;26.980;2022-12-11T11:35:14;21.73;;;8.90;;
12798;SDS011;19250;42.646;26.980;2022-12-11T11:37:52;22.48;;;8.43;;
12798;SDS011;19250;42.646;26.980;2022-12-11T11:40:33;22.05;;;8.40;;
12798;SDS011;19250;42.646;26.980;2022-12-11T11:43:05;19.98;;;7.80;;
12798;SDS011;19250;42.646;26.980;2022-12-11T11:45:42;25.38;;;10.90;;
12798;SDS011;19250;42.646;26.980;2022-12-11T11:48:14;24.92;;;9.38;;
12798;SDS011;19250;42.646;26.980;2022-12-11T11:50:54;21.77;;;7.40;;
12798;SDS011;19250;42.646;26.980;2022-12-11T11:53:26;21.70;;;8.63;;
12798;SDS011;19250;42.646;26.980;2022-12-11T11:55:59;23.30;;;8.38;;
12798;SDS011;19250;42.646;26.980;2022-12-11T11:58:35;22.17;;;7.78;;
12798;SDS011;19250;42.646;26.980;2022-12-11T12:01:09;27.80;;;11.73;;
12798;SDS011;19250;42.646;26.980;2022-12-11T12:03:40;23.67;;;7.40;;
12798;SDS011;19250;42.646;26.980;2022-12-11T12:06:09;20.77;;;7.57;;
12798;SDS011;19250;42.646;26.980;2022-12-11T12:08:45;22.48;;;9.10;;
12798;SDS011;19250;42.646;26.980;2022-12-11T12:11:21;21.90;;;7.73;;
12798;SDS011;19250;42.646;26.980;2022-12-11T12:13:58;19.58;;;7.38;;
12798;SDS011;19250;42.646;26.980;2022-12-11T12:16:36;22.42;;;8.20;;
12798;SDS011;19250;42.646;26.980;2022-12-11T12:19:14;23.48;;;7.50;;
12798;SDS011;19250;42.646;26.980;2022-12-11T12:21:52;27.50;;;11.52;;
12798;SDS011;19250;42.646;26.980;2022-12-11T12:24:25;24.17;;;8.52;;
12798;SDS011;19250;42.646;26.980;2022-12-11T12:27:10;18.67;;;6.90;;
12798;SDS011;19250;42.646;26.980;2022-12-11T12:29:46;29.00;;;11.57;;
12798;SDS011;19250;42.646;26.980;2022-12-11T12:32:24;23.52;;;8.45;;
12798;SDS011;19250;42.646;26.980;2022-12-11T12:35:05;28.40;;;9.18;;
12798;SDS011;19250;42.646;26.980;2022-12-11T12:37:45;31.98;;;16.10;;
12798;SDS011;19250;42.646;26.980;2022-12-11T12:40:22;28.55;;;9.73;;
12798;SDS011;19250;42.646;26.980;2022-12-11T12:42:58;23.52;;;6.95;;
12798;SDS011;19250;42.646;26.980;2022-12-11T12:45:33;33.75;;;12.75;;
12798;SDS011;19250;42.646;26.980;2022-12-11T12:48:08;32.75;;;10.65;;
12798;SDS011;19250;42.646;26.980;2022-12-11T12:50:37;19.08;;;7.00;;
12798;SDS011;19250;42.646;26.980;2022-12-11T12:53:08;28.42;;;8.90;;
12798;SDS011;19250;42.646;26.980;2022-12-11T12:55:43;26.03;;;8.40;;
12798;SDS011;19250;42.646;26.980;2022-12-11T12:58:23;28.98;;;8.63;;
12798;SDS011;19250;42.646;26.980;2022-12-11T13:00:52;26.45;;;9.10;;
12798;SDS011;19250;42.646;26.980;2022-12-11T13:03:20;25.40;;;6.97;;
12798;SDS011;19250;42.646;26.980;2022-12-11T13:05:54;33.17;;;8.63;;
12798;SDS011;19250;42.646;26.980;2022-12-11T13:08:24;29.42;;;9.20;;
12798;SDS011;19250;42.646;26.980;2022-12-11T13:10:59;29.80;;;10.38;;
12798;SDS011;19250;42.646;26.980;2022-12-11T13:13:32;29.93;;;9.90;;
12798;SDS011;19250;42.646;26.980;2022-12-11T13:16:07;29.48;;;9.55;;
12798;SDS011;19250;42.646;26.980;2022-12-11T13:18:49;29.95;;;9.90;;
12798;SDS011;19250;42.646;26.980;2022-12-11T13:21:27;33.20;;;10.73;;
12798;SDS011;19250;42.646;26.980;2022-12-11T13:24:09;34.92;;;14.35;;
12798;SDS011;19250;42.646;26.980;2022-12-11T13:26:41;27.63;;;6.70;;
12798;SDS011;19250;42.646;26.980;2022-12-11T13:31:56;33.78;;;9.85;;
12798;SDS011;19250;42.646;26.980;2022-12-11T13:34:25;33.75;;;8.52;;
12798;SDS011;19250;42.646;26.980;2022-12-11T13:36:56;31.23;;;9.60;;
12798;SDS011;19250;42.646;26.980;2022-12-11T13:39:25;38.85;;;14.80;;
12798;SDS011;19250;42.646;26.980;2022-12-11T13:41:58;31.60;;;8.27;;
12798;SDS011;19250;42.646;26.980;2022-12-11T13:44:28;32.83;;;9.65;;
12798;SDS011;19250;42.646;26.980;2022-12-11T13:46:59;85.25;;;50.15;;
12798;SDS011;19250;42.646;26.980;2022-12-11T13:49:29;40.63;;;16.88;;
12798;SDS011;19250;42.646;26.980;2022-12-11T13:52:00;36.55;;;16.60;;
12798;SDS011;19250;42.646;26.980;2022-12-11T13:54:28;32.25;;;10.80;;
12798;SDS011;19250;42.646;26.980;2022-12-11T13:56:59;31.17;;;11.40;;
12798;SDS011;19250;42.646;26.980;2022-12-11T13:59:29;33.63;;;11.02;;
12798;SDS011;19250;42.646;26.980;2022-12-11T14:02:01;30.27;;;11.93;;
12798;SDS011;19250;42.646;26.980;2022-12-11T14:04:35;50.50;;;26.73;;
12798;SDS011;19250;42.646;26.980;2022-12-11T14:07:05;39.40;;;12.70;;
12798;SDS011;19250;42.646;26.980;2022-12-11T14:09:35;30.48;;;11.50;;
12798;SDS011;19250;42.646;26.980;2022-12-11T14:12:11;39.23;;;15.97;;
12798;SDS011;19250;42.646;26.980;2022-12-11T14:14:42;37.70;;;17.50;;
12798;SDS011;19250;42.646;26.980;2022-12-11T14:17:13;100.88;;;61.58;;
12798;SDS011;19250;42.646;26.980;2022-12-11T14:19:44;51.78;;;35.10;;
12798;SDS011;19250;42.646;26.980;2022-12-11T14:22:16;47.78;;;35.38;;
12798;SDS011;19250;42.646;26.980;2022-12-11T14:24:48;33.08;;;14.65;;
12798;SDS011;19250;42.646;26.980;2022-12-11T14:27:18;34.80;;;17.65;;
12798;SDS011;19250;42.646;26.980;2022-12-11T14:29:46;23.55;;;9.25;;
12798;SDS011;19250;42.646;26.980;2022-12-11T14:32:16;21.80;;;8.50;;
12798;SDS011;19250;42.646;26.980;2022-12-11T14:34:50;20.40;;;8.45;;
12798;SDS011;19250;42.646;26.980;2022-12-11T14:37:19;17.88;;;5.75;;
12798;SDS011;19250;42.646;26.980;2022-12-11T14:39:51;15.77;;;5.47;;